Time;durP1;ratioP1;P1;durP2;ratioP2;P2;SDS_P1;SDS_P2;PMS_P1;PMS_P2;Temp;Humidity;BMP_temperature;BMP_pressure;BME280_temperature;BME280_humidity;BME280_pressure;Samples;Min_cycle;Max_cycle;Signal;HPM_P1;HPM_P2
2022/04/17 00:01:03;;;;;;;13.80;3.90;;;;;;;38.34;43.67;100924.97;6157762;23;20416;-74
2022/04/17 00:03:31;;;;;;;8.83;3.60;;;;;;;38.23;43.86;100916.25;6158014;23;20397;-72
2022/04/17 00:05:57;;;;;;;10.40;4.93;;;;;;;38.26;44.25;100912.16;6157713;23;20946;-74
2022/04/17 00:08:23;;;;;;;13.53;4.30;;;;;;;37.99;44.85;100897.56;6158059;23;20830;-72
2022/04/17 00:10:49;;;;;;;10.97;5.00;;;;;;;38.09;44.67;100899.25;6157803;23;20450;-72
2022/04/17 00:13:16;;;;;;;10.03;4.63;;;;;;;38.27;44.19;100897.50;6133457;23;20853;-72
2022/04/17 00:15:42;;;;;;;10.80;4.93;;;;;;;38.35;44.38;100899.47;6158011;23;20917;-74
2022/04/17 00:18:09;;;;;;;21.30;5.20;;;;;;;38.37;44.28;100892.66;6157836;23;20427;-74
2022/04/17 00:20:38;;;;;;;10.60;3.70;;;;;;;38.27;44.43;100894.81;6157835;23;20845;-74
2022/04/17 00:23:04;;;;;;;9.83;4.80;;;;;;;38.20;44.57;100892.50;6157701;23;20388;-72
2022/04/17 00:25:30;;;;;;;9.13;4.17;;;;;;;38.38;44.27;100888.84;6157780;23;20876;-74
2022/04/17 00:27:56;;;;;;;8.87;4.70;;;;;;;38.36;44.15;100879.41;6157855;23;20476;-75
2022/04/17 00:30:23;;;;;;;7.50;4.63;;;;;;;38.31;43.75;100871.41;6157652;23;20383;-72
2022/04/17 00:32:49;;;;;;;8.00;4.30;;;;;;;38.23;44.23;100863.97;6157727;23;20863;-72
2022/04/17 00:35:15;;;;;;;12.00;3.80;;;;;;;38.32;44.00;100873.00;6157886;23;20388;-74
2022/04/17 00:37:41;;;;;;;11.70;4.93;;;;;;;38.27;44.06;100860.38;6157727;23;20739;-75
2022/04/17 00:40:07;;;;;;;8.97;3.83;;;;;;;38.43;43.09;100852.69;6158022;23;20888;-72
2022/04/17 00:42:33;;;;;;;9.43;3.73;;;;;;;38.37;43.18;100859.34;6109068;23;20383;-72
2022/04/17 00:44:59;;;;;;;8.63;4.30;;;;;;;38.26;43.51;100853.38;6157564;23;20408;-72
2022/04/17 00:47:26;;;;;;;7.30;3.03;;;;;;;38.28;43.90;100845.72;6157848;23;20409;-74
2022/04/17 00:49:52;;;;;;;9.43;4.73;;;;;;;38.43;43.60;100839.94;6157657;23;20400;-75
2022/04/17 00:52:20;;;;;;;7.13;4.90;;;;;;;38.40;44.07;100834.31;6157678;23;20435;-74
2022/04/17 00:54:48;;;;;;;8.50;4.33;;;;;;;38.38;43.75;100833.84;6157687;23;20866;-73
2022/04/17 00:57:16;;;;;;;11.20;5.33;;;;;;;38.51;43.51;100826.72;6133144;23;20788;-74
2022/04/17 00:59:43;;;;;;;10.80;3.63;;;;;;;38.46;43.10;100819.53;6157573;23;20395;-72
2022/04/17 01:02:10;;;;;;;14.40;4.90;;;;;;;38.49;43.22;100812.66;6157482;23;20946;-74
2022/04/17 01:04:37;;;;;;;8.43;3.30;;;;;;;38.41;43.66;100814.25;6157549;23;20850;-72
2022/04/17 01:07:04;;;;;;;9.90;3.40;;;;;;;38.42;43.21;100813.13;6157336;23;20508;-71
2022/04/17 01:09:31;;;;;;;13.77;4.53;;;;;;;38.50;43.22;100809.69;6184082;23;20369;-72
2022/04/17 01:11:58;;;;;;;14.70;4.93;;;;;;;38.43;43.83;100815.53;6157384;23;20419;-75
2022/04/17 01:14:26;;;;;;;7.50;3.77;;;;;;;38.42;43.93;100813.13;6157510;23;20377;-74
2022/04/17 01:16:53;;;;;;;14.73;4.47;;;;;;;38.14;43.95;100812.47;6157640;23;20435;-72
2022/04/17 01:19:19;;;;;;;5.83;3.47;;;;;;;38.18;43.42;100811.53;6157537;23;20379;-72
2022/04/17 01:21:49;;;;;;;12.40;3.80;;;;;;;38.05;44.32;100809.69;6183214;23;20361;-73
2022/04/17 01:27:03;;;;;;;13.37;4.07;;;;;;;38.03;43.50;100805.69;6184030;23;20360;-72
2022/04/17 01:29:34;;;;;;;8.03;4.67;;;;;;;38.11;44.07;100803.03;6157521;23;20379;-71
2022/04/17 01:32:02;;;;;;;13.47;3.80;;;;;;;38.15;43.55;100801.31;6157481;23;20424;-72
2022/04/17 01:34:29;;;;;;;6.70;3.10;;;;;;;38.13;43.40;100790.00;6157491;23;20472;-73
2022/04/17 01:36:55;;;;;;;6.67;3.60;;;;;;;38.15;44.18;100790.47;6157701;23;20369;-72
2022/04/17 01:39:21;;;;;;;10.03;4.00;;;;;;;38.28;44.03;100777.19;6157528;23;20426;-72
2022/04/17 01:41:49;;;;;;;7.73;3.60;;;;;;;38.17;44.64;100782.03;6157383;23;20837;-74
2022/04/17 01:44:16;;;;;;;13.10;4.37;;;;;;;38.35;44.12;100783.75;6157357;23;20470;-73
2022/04/17 01:46:43;;;;;;;11.40;4.40;;;;;;;38.48;44.03;100779.34;6157475;23;20377;-72
2022/04/17 01:49:11;;;;;;;9.07;4.43;;;;;;;38.13;44.26;100772.94;6157311;23;20383;-72
2022/04/17 01:51:38;;;;;;;18.53;3.17;;;;;;;37.99;44.64;100766.78;6157427;23;20523;-74
2022/04/17 01:54:10;;;;;;;8.90;3.30;;;;;;;38.03;44.26;100774.00;6157326;23;20454;-74
2022/04/17 01:56:37;;;;;;;6.60;3.23;;;;;;;38.13;43.61;100776.44;6157327;23;20415;-73
2022/04/17 01:59:05;;;;;;;9.20;2.73;;;;;;;38.15;43.59;100768.81;6132920;23;20391;-72
2022/04/17 02:01:35;;;;;;;7.13;3.63;;;;;;;37.97;43.86;100771.72;6132938;23;20384;-72
2022/04/17 02:04:03;;;;;;;6.23;3.00;;;;;;;38.14;43.56;100766.41;6132873;23;20380;-69
2022/04/17 02:06:29;;;;;;;14.73;5.27;;;;;;;38.22;43.13;100756.72;6157098;23;20440;-74
2022/04/17 02:08:55;;;;;;;10.07;5.23;;;;;;;38.24;42.96;100747.16;6157348;23;20431;-72
2022/04/17 02:11:23;;;;;;;11.67;5.33;;;;;;;38.24;43.79;100749.88;6158073;23;20436;-72
2022/04/17 02:13:50;;;;;;;13.57;3.90;;;;;;;38.11;44.37;100756.19;6159183;23;20904;-72
2022/04/17 02:16:19;;;;;;;9.80;3.87;;;;;;;38.08;44.75;100744.06;6185414;23;20364;-73
2022/04/17 02:18:47;;;;;;;10.60;4.10;;;;;;;38.17;43.92;100744.91;6158998;23;20442;-75
2022/04/17 02:21:14;;;;;;;8.80;4.03;;;;;;;37.94;44.54;100756.06;6158347;23;20387;-72
2022/04/17 02:23:41;;;;;;;10.23;4.90;;;;;;;38.30;43.56;100754.09;6134217;23;20376;-73
2022/04/17 02:26:08;;;;;;;8.90;4.40;;;;;;;38.21;43.69;100755.13;6159062;23;20380;-72
2022/04/17 02:28:39;;;;;;;12.40;3.70;;;;;;;38.07;43.84;100764.16;6158918;23;20384;-72
2022/04/17 02:31:08;;;;;;;7.90;3.13;;;;;;;37.94;44.07;100756.06;6111321;23;20790;-74
2022/04/17 02:33:36;;;;;;;10.43;3.93;;;;;;;37.81;43.89;100753.16;6185285;23;20840;-72
2022/04/17 02:36:02;;;;;;;6.33;3.30;;;;;;;37.96;43.50;100751.97;6158907;23;20475;-74
2022/04/17 02:38:28;;;;;;;10.77;4.00;;;;;;;38.16;43.47;100756.84;6158647;23;20412;-74
2022/04/17 02:40:55;;;;;;;17.80;4.33;;;;;;;38.15;43.09;100751.75;6158747;23;20439;-75
2022/04/17 02:43:21;;;;;;;9.57;4.10;;;;;;;38.04;43.58;100756.63;6158883;23;20451;-74
2022/04/17 02:45:49;;;;;;;11.73;4.40;;;;;;;38.21;43.56;100750.50;6158428;23;20974;-73
2022/04/17 02:48:15;;;;;;;14.93;4.70;;;;;;;38.16;43.27;100740.59;6158782;23;20388;-74
2022/04/17 02:50:42;;;;;;;10.80;3.67;;;;;;;38.20;43.23;100748.13;6158783;23;20431;-74
2022/04/17 02:53:08;;;;;;;9.53;3.77;;;;;;;38.27;43.38;100745.78;6158509;23;20438;-72
2022/04/17 02:55:34;;;;;;;17.33;5.00;;;;;;;38.21;42.98;100742.38;6158718;23;20518;-72
2022/04/17 02:58:01;;;;;;;9.23;3.53;;;;;;;38.31;43.32;100746.78;6134391;23;20385;-72
2022/04/17 03:00:27;;;;;;;11.53;4.20;;;;;;;37.98;43.87;100755.16;6158506;23;20394;-72
2022/04/17 03:05:38;;;;;;;16.03;3.93;;;;;;;38.00;43.87;100742.13;6185103;23;20848;-74
2022/04/17 03:08:09;;;;;;;7.13;3.60;;;;;;;38.30;43.25;100753.28;6158132;23;20447;-74
2022/04/17 03:10:37;;;;;;;12.80;4.70;;;;;;;38.25;43.81;100754.22;6158536;23;20431;-73
2022/04/17 03:13:04;;;;;;;10.77;3.30;;;;;;;38.21;43.65;100763.25;6185096;23;20418;-74
2022/04/17 03:15:40;;;;;;;6.40;3.50;;;;;;;38.11;44.17;100762.41;6158243;23;20471;-73
2022/04/17 03:18:08;;;;;;;11.63;4.17;;;;;;;38.15;43.79;100762.59;6184994;23;20864;-72
2022/04/17 03:20:35;;;;;;;16.20;4.30;;;;;;;38.04;44.29;100769.38;6158366;23;20435;-72
2022/04/17 03:23:02;;;;;;;9.73;4.10;;;;;;;38.12;43.52;100768.59;6134014;23;20420;-73
2022/04/17 03:25:29;;;;;;;7.70;3.70;;;;;;;38.17;43.71;100769.28;6158278;23;20396;-72
2022/04/17 03:28:00;;;;;;;7.77;4.37;;;;;;;38.01;44.03;100773.50;6184884;23;21046;-72
2022/04/17 03:30:26;;;;;;;12.60;3.80;;;;;;;38.13;43.96;100778.34;6158188;23;20396;-72
2022/04/17 03:32:52;;;;;;;9.10;4.20;;;;;;;38.06;44.36;100772.56;6184782;23;20365;-74
2022/04/17 03:35:19;;;;;;;7.90;4.90;;;;;;;37.96;44.68;100783.66;6158216;23;20845;-72
2022/04/17 03:37:45;;;;;;;13.03;5.90;;;;;;;37.72;45.63;100784.72;6158200;23;20899;-72
2022/04/17 03:40:14;;;;;;;11.13;7.67;;;;;;;37.65;46.00;100779.72;6158149;23;20729;-71
2022/04/17 03:42:41;;;;;;;14.80;6.40;;;;;;;37.33;46.99;100788.81;6158289;23;20867;-72
2022/04/17 03:45:11;;;;;;;16.80;6.07;;;;;;;37.25;47.18;100786.00;6158173;23;20388;-74
2022/04/17 03:47:38;;;;;;;11.37;7.10;;;;;;;37.42;46.59;100788.91;6158235;23;20388;-74
2022/04/17 03:50:05;;;;;;;10.37;5.43;;;;;;;37.31;46.84;100785.59;6184581;23;20403;-74
2022/04/17 03:52:45;;;;;;;13.10;6.50;;;;;;;37.48;46.64;100781.50;6158078;23;20424;-72
2022/04/17 03:55:12;;;;;;;14.70;7.47;;;;;;;37.62;46.31;100782.25;6158051;23;20420;-74
2022/04/17 03:57:39;;;;;;;12.30;6.43;;;;;;;37.70;45.76;100775.31;6158271;23;20388;-73
2022/04/17 04:00:07;;;;;;;15.97;7.10;;;;;;;37.56;46.42;100773.44;6158127;23;20391;-73
2022/04/17 04:02:34;;;;;;;15.90;7.87;;;;;;;37.77;45.74;100767.56;6158102;23;20372;-74
2022/04/17 04:05:00;;;;;;;11.40;7.00;;;;;;;37.74;45.62;100771.66;6157992;23;20388;-74
2022/04/17 04:07:26;;;;;;;10.67;6.90;;;;;;;37.71;45.88;100775.00;6157605;23;20451;-73
2022/04/17 04:09:52;;;;;;;10.73;6.60;;;;;;;37.75;45.78;100776.00;6157989;23;20438;-75
2022/04/17 04:12:20;;;;;;;13.23;7.10;;;;;;;37.55;46.55;100771.84;6157788;23;20429;-72
2022/04/17 04:14:46;;;;;;;11.73;6.73;;;;;;;37.33;47.03;100771.78;6157924;23;20380;-74
2022/04/17 04:17:12;;;;;;;27.33;7.50;;;;;;;37.30;46.61;100773.19;6184388;23;20434;-74
2022/04/17 04:19:38;;;;;;;16.13;7.40;;;;;;;37.09;47.36;100772.03;6157886;23;20372;-72
2022/04/17 04:22:05;;;;;;;12.50;7.00;;;;;;;37.06;47.84;100770.72;6157849;23;20856;-72
2022/04/17 04:24:31;;;;;;;11.03;6.90;;;;;;;37.31;47.21;100772.06;6157880;23;20689;-72
2022/04/17 04:29:41;;;;;;;11.20;7.60;;;;;;;37.15;47.63;100778.13;6184063;23;20474;-74
2022/04/17 04:32:08;;;;;;;15.43;7.67;;;;;;;37.05;47.53;100779.13;6157914;23;20424;-74
2022/04/17 04:34:34;;;;;;;11.60;7.57;;;;;;;37.18;47.54;100778.31;6157565;23;20729;-74
2022/04/17 04:37:00;;;;;;;15.60;8.90;;;;;;;37.33;47.52;100779.91;6157687;23;20388;-73
2022/04/17 04:39:28;;;;;;;20.73;11.73;;;;;;;37.53;47.10;100773.25;6157674;23;20414;-73
2022/04/17 04:41:54;;;;;;;22.53;15.00;;;;;;;37.50;46.68;100781.97;6157777;23;20387;-72
2022/04/17 04:44:20;;;;;;;17.13;11.63;;;;;;;37.18;47.75;100780.22;6157763;23;20388;-72
2022/04/17 04:46:46;;;;;;;17.90;11.27;;;;;;;37.09;48.06;100783.63;6157700;23;20400;-73
2022/04/17 04:49:31;;;;;;;19.10;10.17;;;;;;;37.29;47.05;100787.81;6157564;23;20420;-74
2022/04/17 04:52:01;;;;;;;23.93;12.07;;;;;;;37.15;48.05;100791.66;6157518;23;20454;-71
2022/04/17 04:54:28;;;;;;;20.63;13.27;;;;;;;37.34;47.60;100786.94;6157745;23;20396;-72
2022/04/17 04:56:54;;;;;;;23.87;13.57;;;;;;;37.41;47.42;100789.22;6157637;23;20467;-72
2022/04/17 04:59:21;;;;;;;23.70;17.00;;;;;;;37.42;47.27;100786.22;6157465;23;20389;-73
2022/04/17 05:01:48;;;;;;;22.00;16.93;;;;;;;37.11;47.95;100786.03;6157665;23;20384;-74
2022/04/17 05:04:17;;;;;;;28.50;20.60;;;;;;;37.09;47.83;100783.63;6157551;23;20380;-72
2022/04/17 05:06:46;;;;;;;32.97;21.10;;;;;;;36.92;47.88;100788.84;6157346;23;20447;-72
2022/04/17 05:09:13;;;;;;;27.40;19.33;;;;;;;37.19;46.96;100782.59;6133753;23;20447;-72
2022/04/17 05:11:39;;;;;;;25.83;18.60;;;;;;;37.13;46.93;100787.31;6157449;23;20461;-74
2022/04/17 05:14:06;;;;;;;24.80;18.97;;;;;;;37.00;47.88;100790.84;6184141;23;20356;-74
2022/04/17 05:16:33;;;;;;;29.73;14.53;;;;;;;35.99;49.73;100788.81;6157437;23;20380;-72
2022/04/17 05:21:46;;;;;;;17.40;12.87;;;;;;;36.32;48.92;100799.63;6183932;23;20701;-74
2022/04/17 05:24:16;;;;;;;21.40;14.00;;;;;;;36.24;48.75;100794.91;6183838;23;20407;-74
2022/04/17 05:26:43;;;;;;;20.77;13.30;;;;;;;36.51;48.37;100800.38;6157436;23;20471;-73
2022/04/17 05:29:09;;;;;;;16.13;13.77;;;;;;;36.79;47.40;100808.53;6157526;23;20868;-74
2022/04/17 05:31:35;;;;;;;25.20;15.13;;;;;;;36.65;47.76;100805.84;6183934;23;20420;-73
2022/04/17 05:34:01;;;;;;;17.40;13.47;;;;;;;36.61;47.52;100809.44;6157887;23;20466;-72
2022/04/17 05:36:28;;;;;;;27.23;19.07;;;;;;;36.82;46.92;100814.13;6157276;23;20502;-74
2022/04/17 05:38:55;;;;;;;26.87;15.03;;;;;;;36.74;46.90;100814.84;6157330;23;20763;-71
2022/04/17 05:41:24;;;;;;;23.20;15.07;;;;;;;36.96;46.67;100810.69;6157591;23;20381;-71
2022/04/17 05:43:51;;;;;;;24.20;16.17;;;;;;;36.93;46.20;100813.97;6183854;23;20360;-70
2022/04/17 05:46:18;;;;;;;24.60;14.77;;;;;;;36.80;46.62;100808.25;6133972;23;20770;-71
2022/04/17 05:48:44;;;;;;;25.43;16.43;;;;;;;36.87;46.24;100810.56;6159774;23;20474;-73
2022/04/17 05:51:10;;;;;;;25.70;16.67;;;;;;;36.80;46.68;100812.84;6159089;23;20432;-73
2022/04/17 05:53:36;;;;;;;21.10;15.43;;;;;;;36.69;47.06;100806.03;6185774;23;20376;-73
2022/04/17 05:56:02;;;;;;;25.10;15.97;;;;;;;36.77;47.06;100808.03;6159366;23;20390;-71
2022/04/17 05:58:28;;;;;;;20.87;15.50;;;;;;;36.80;46.64;100805.53;6159104;23;20412;-74
2022/04/17 06:00:55;;;;;;;27.23;19.90;;;;;;;36.85;46.54;100804.66;6159276;23;20388;-74
2022/04/17 06:03:22;;;;;;;20.13;16.07;;;;;;;36.15;47.62;100808.25;6185448;23;20455;-73
2022/04/17 06:05:48;;;;;;;27.97;15.43;;;;;;;36.52;46.89;100809.28;6185613;23;20365;-74
2022/04/17 06:08:14;;;;;;;23.83;15.77;;;;;;;36.31;47.21;100808.81;6158925;23;20451;-74
2022/04/17 06:10:40;;;;;;;28.63;15.60;;;;;;;36.24;47.50;100805.72;6159445;23;20435;-74
2022/04/17 06:13:07;;;;;;;25.27;15.07;;;;;;;36.24;47.22;100811.91;6159197;23;20376;-74
2022/04/17 06:15:33;;;;;;;22.03;14.80;;;;;;;36.27;47.07;100821.31;6158759;23;20408;-73
2022/04/17 06:17:59;;;;;;;24.00;14.57;;;;;;;36.48;47.02;100821.81;6185623;23;20352;-74
2022/04/17 06:20:25;;;;;;;24.20;12.47;;;;;;;36.65;46.67;100824.75;6185604;23;20370;-72
2022/04/17 06:22:51;;;;;;;19.30;12.70;;;;;;;36.43;46.98;100828.09;6159212;23;20475;-74
2022/04/17 06:25:17;;;;;;;16.07;11.77;;;;;;;36.73;46.19;100825.97;6158956;23;20392;-74
2022/04/17 06:27:47;;;;;;;16.00;11.77;;;;;;;36.78;46.13;100837.47;6134576;23;20388;-72
2022/04/17 06:30:15;;;;;;;17.30;13.03;;;;;;;36.82;45.38;100832.25;6159032;23;20479;-72
2022/04/17 06:32:42;;;;;;;18.70;12.50;;;;;;;36.88;45.59;100843.81;6158771;23;20428;-73
2022/04/17 06:35:11;;;;;;;19.73;13.10;;;;;;;37.00;45.40;100844.13;6158979;23;20764;-74
2022/04/17 06:37:56;;;;;;;15.83;10.87;;;;;;;37.26;44.89;100845.25;6158980;23;20420;-72
2022/04/17 06:40:24;;;;;;;20.70;14.17;;;;;;;37.25;44.52;100856.34;6185892;23;20465;-72
2022/04/17 06:42:52;;;;;;;21.00;14.00;;;;;;;37.04;44.91;100853.25;6158890;23;20395;-72
2022/04/17 06:45:19;;;;;;;18.80;12.13;;;;;;;37.08;45.05;100846.94;6185202;23;20376;-72
2022/04/17 06:47:45;;;;;;;25.03;14.77;;;;;;;37.07;44.75;100844.53;6158539;23;20420;-73
2022/04/17 06:50:13;;;;;;;21.00;15.00;;;;;;;37.04;45.03;100847.84;6184454;23;20449;-72
2022/04/17 06:52:40;;;;;;;17.93;12.90;;;;;;;37.20;44.71;100845.63;6157474;23;20474;-71
2022/04/17 06:55:08;;;;;;;19.33;11.03;;;;;;;37.30;44.90;100843.50;6157372;23;20384;-70
2022/04/17 06:57:34;;;;;;;14.50;9.73;;;;;;;37.11;44.92;100848.22;6157128;23;20385;-72
2022/04/17 07:00:09;;;;;;;15.53;11.37;;;;;;;37.04;44.88;100845.13;6158702;23;20376;-75
2022/04/17 07:02:36;;;;;;;13.40;9.50;;;;;;;37.09;44.97;100848.53;6157361;23;21199;-71
2022/04/17 07:05:03;;;;;;;22.37;10.93;;;;;;;37.20;44.18;100849.16;6134252;23;20383;-70
2022/04/17 07:07:29;;;;;;;13.90;10.43;;;;;;;37.00;45.07;100850.31;6157893;23;20455;-72
2022/04/17 07:09:55;;;;;;;21.40;11.30;;;;;;;36.91;45.20;100852.13;6158700;23;20399;-84
2022/04/17 07:12:22;;;;;;;16.70;10.60;;;;;;;37.21;44.98;100866.19;6158117;23;20509;-79
2022/04/17 07:14:49;;;;;;;15.13;10.10;;;;;;;37.46;43.74;100867.59;6157158;23;20714;-75
2022/04/17 07:17:15;;;;;;;20.00;9.40;;;;;;;37.35;44.43;100873.19;6157905;23;20423;-76
2022/04/17 07:19:41;;;;;;;14.03;9.50;;;;;;;37.43;44.14;100874.38;6156557;23;20392;-78
2022/04/17 07:22:07;;;;;;;15.93;10.97;;;;;;;37.58;43.92;100878.69;6184913;23;20376;-76
2022/04/17 07:24:33;;;;;;;19.37;9.43;;;;;;;37.70;43.30;100872.75;6156918;23;20534;-72
2022/04/17 07:27:00;;;;;;;12.70;8.93;;;;;;;37.59;43.35;100872.19;6158634;23;20416;-78
2022/04/17 07:29:27;;;;;;;15.33;9.67;;;;;;;37.72;43.50;100878.66;6182720;23;20360;-74
2022/04/17 07:31:53;;;;;;;17.00;8.97;;;;;;;37.94;43.06;100872.50;6133231;23;20781;-75
2022/04/17 07:34:23;;;;;;;17.87;11.50;;;;;;;37.99;42.74;100873.19;6157800;23;20427;-75
2022/04/17 07:36:59;;;;;;;19.03;10.37;;;;;;;37.58;44.03;100876.78;6158156;23;20395;-74
2022/04/17 07:39:25;;;;;;;11.27;8.37;;;;;;;37.83;43.51;100882.78;6157516;23;20376;-72
2022/04/17 07:41:51;;;;;;;14.23;8.63;;;;;;;37.48;43.32;100892.44;6156846;23;20380;-77
2022/04/17 07:44:17;;;;;;;15.57;9.97;;;;;;;37.56;43.76;100887.09;6156764;23;20435;-76
2022/04/17 07:46:43;;;;;;;20.00;9.77;;;;;;;37.76;43.37;100902.13;6157937;23;20475;-79
2022/04/17 07:49:10;;;;;;;12.97;9.30;;;;;;;37.87;43.55;100897.31;6157219;23;20398;-74
2022/04/17 07:51:36;;;;;;;14.00;8.00;;;;;;;38.14;43.04;100899.94;6156601;23;20456;-82
2022/04/17 07:54:03;;;;;;;14.30;8.67;;;;;;;38.08;42.93;100898.47;6131489;23;20384;-75
2022/04/17 07:56:30;;;;;;;17.23;8.73;;;;;;;38.12;43.25;100895.91;6133460;23;20388;-83
2022/04/17 07:58:56;;;;;;;11.67;7.13;;;;;;;38.26;43.16;100904.00;6154611;23;20380;-77
2022/04/17 08:01:22;;;;;;;14.93;8.73;;;;;;;38.31;43.40;100909.34;6107863;23;20447;-75
2022/04/17 08:03:48;;;;;;;13.80;8.73;;;;;;;38.03;43.49;100897.78;6183189;23;20867;-72
2022/04/17 08:06:20;;;;;;;16.13;8.60;;;;;;;38.25;43.14;100902.41;6155994;23;20415;-74
2022/04/17 08:08:46;;;;;;;10.63;6.27;;;;;;;38.43;43.03;100896.84;6130338;23;20427;-77
2022/04/17 08:11:13;;;;;;;14.63;7.13;;;;;;;38.21;43.15;100898.72;6154989;23;20892;-79
2022/04/17 08:13:39;;;;;;;23.40;9.97;;;;;;;38.36;42.94;100893.75;6182245;23;20367;-79
2022/04/17 08:16:08;;;;;;;11.80;7.23;;;;;;;38.10;43.35;100898.13;6155101;23;20385;-77
2022/04/17 08:18:36;;;;;;;15.03;9.47;;;;;;;37.86;44.11;100904.63;6156448;23;20772;-78
2022/04/17 08:21:06;;;;;;;15.87;7.23;;;;;;;38.11;43.64;100903.25;6155734;23;20379;-78
2022/04/17 08:23:35;;;;;;;16.73;8.47;;;;;;;37.87;44.72;100905.41;6183262;23;20436;-79
2022/04/17 08:26:01;;;;;;;13.60;7.43;;;;;;;37.82;44.58;100900.16;6157388;23;20899;-78
2022/04/17 08:28:27;;;;;;;9.50;7.27;;;;;;;38.07;44.07;100904.97;6157913;23;20479;-78
2022/04/17 08:30:55;;;;;;;12.10;7.90;;;;;;;38.13;44.24;100903.75;6157867;23;20502;-79
2022/04/17 08:33:21;;;;;;;12.30;8.90;;;;;;;38.17;44.23;100909.34;6157577;23;20408;-80
2022/04/17 08:35:47;;;;;;;15.80;9.13;;;;;;;37.89;44.67;100905.94;6157834;23;20475;-81
2022/04/17 08:38:14;;;;;;;10.30;8.23;;;;;;;37.84;44.95;100897.94;6156989;23;20459;-78
2022/04/17 08:40:41;;;;;;;14.47;8.50;;;;;;;38.21;44.47;100899.50;6156453;23;20376;-78
2022/04/17 08:43:10;;;;;;;17.37;10.73;;;;;;;38.37;44.11;100897.28;6182807;23;20380;-80
2022/04/17 08:45:38;;;;;;;12.03;8.80;;;;;;;38.21;44.58;100904.94;6183155;23;20462;-84
2022/04/17 08:48:11;;;;;;;12.50;9.40;;;;;;;38.44;44.53;100894.94;6186099;23;20821;-90
2022/04/17 08:50:37;;;;;;;12.43;7.87;;;;;;;38.50;44.84;100906.44;6159827;23;20404;-89
2022/04/17 08:53:04;;;;;;;12.90;8.07;;;;;;;38.18;45.43;100900.94;6185209;23;20841;-84
2022/04/17 08:55:31;;;;;;;10.93;6.47;;;;;;;37.85;45.89;100896.81;6157233;23;20467;-83
2022/04/17 08:57:57;;;;;;;16.60;7.60;;;;;;;38.16;45.64;100908.56;6157601;23;20408;-87
2022/04/17 09:00:23;;;;;;;15.43;7.40;;;;;;;38.39;44.84;100903.97;6157591;23;20468;-88
2022/04/17 09:02:50;;;;;;;10.27;8.00;;;;;;;38.54;44.49;100900.06;6157394;23;20407;-81
2022/04/17 09:05:20;;;;;;;11.23;7.33;;;;;;;38.64;44.33;100897.13;6156711;23;20372;-74
2022/04/17 09:07:47;;;;;;;16.10;8.73;;;;;;;38.66;44.27;100894.88;6157476;23;20439;-74
2022/04/17 09:10:23;;;;;;;12.13;7.40;;;;;;;38.79;44.20;100906.00;6157437;23;20396;-75
2022/04/17 09:12:52;;;;;;;14.07;7.53;;;;;;;38.86;43.83;100906.38;6183862;23;20363;-76
2022/04/17 09:15:22;;;;;;;11.17;7.00;;;;;;;38.57;45.03;100907.59;6157151;23;20732;-74
2022/04/17 09:17:48;;;;;;;20.63;8.00;;;;;;;38.65;44.60;100900.63;6157689;23;20364;-74
2022/04/17 09:20:24;;;;;;;16.73;7.87;;;;;;;38.66;45.00;100891.38;6184826;23;20813;-73
2022/04/17 09:23:01;;;;;;;15.47;8.20;;;;;;;38.80;44.77;100897.56;6135888;23;20430;-73
2022/04/17 09:25:28;;;;;;;12.33;8.40;;;;;;;38.89;44.42;100900.31;6159263;23;20751;-75
2022/04/17 09:28:00;;;;;;;12.07;7.63;;;;;;;38.87;44.14;100899.84;6158390;23;20725;-85
2022/04/17 09:30:29;;;;;;;12.70;7.20;;;;;;;38.47;44.87;100907.06;6159429;23;20392;-82
2022/04/17 09:32:56;;;;;;;14.73;7.90;;;;;;;38.51;45.04;100910.75;6157497;23;20424;-78
2022/04/17 09:35:26;;;;;;;17.10;9.27;;;;;;;38.64;44.45;100901.75;6158650;23;20426;-73
2022/04/17 09:37:58;;;;;;;14.77;7.37;;;;;;;38.76;44.23;100906.63;6158305;23;20450;-77
2022/04/17 09:40:26;;;;;;;12.50;7.53;;;;;;;38.64;44.15;100918.00;6157702;23;20416;-74
2022/04/17 09:43:29;;;;;;;12.53;6.20;;;;;;;38.82;44.00;100908.09;6184742;23;20368;-75
2022/04/17 09:46:20;;;;;;;14.40;7.70;;;;;;;39.05;43.59;100917.00;6157211;23;20895;-76
2022/04/17 09:48:46;;;;;;;11.60;6.17;;;;;;;38.73;43.80;100915.38;6158767;23;20410;-80
2022/04/17 09:51:26;;;;;;;13.63;4.77;;;;;;;38.60;43.75;100919.72;6159048;23;20548;-79
2022/04/17 09:54:05;;;;;;;9.90;4.67;;;;;;;38.73;42.98;100918.06;6159454;23;20388;-84
2022/04/17 09:56:40;;;;;;;8.17;5.60;;;;;;;38.87;42.81;100911.47;6159495;23;20387;-82
2022/04/17 09:59:21;;;;;;;8.10;3.73;;;;;;;38.87;41.75;100914.19;6158890;23;20741;-77
2022/04/17 10:01:52;;;;;;;12.83;4.73;;;;;;;38.89;41.61;100905.72;6185517;23;20371;-77
2022/04/17 10:04:20;;;;;;;13.83;4.07;;;;;;;38.81;41.80;100906.50;6159180;23;20395;-77
2022/04/17 10:06:50;;;;;;;8.33;3.43;;;;;;;39.07;41.07;100915.56;6159060;23;20448;-77
2022/04/17 10:09:17;;;;;;;9.53;4.10;;;;;;;39.10;41.54;100908.69;6185586;23;20361;-76
2022/04/17 10:11:43;;;;;;;13.27;6.33;;;;;;;39.12;41.21;100909.19;6185198;23;20518;-77
2022/04/17 10:14:10;;;;;;;14.17;3.70;;;;;;;38.92;41.80;100918.69;6159045;23;20387;-76
2022/04/17 10:16:41;;;;;;;12.93;4.97;;;;;;;39.13;41.78;100913.50;6133894;23;20869;-76
2022/04/17 10:19:19;;;;;;;8.27;3.97;;;;;;;39.24;41.56;100906.72;6158490;23;20384;-78
2022/04/17 10:21:49;;;;;;;8.30;4.33;;;;;;;39.21;41.15;100910.03;6185409;23;20348;-77
2022/04/17 10:24:17;;;;;;;10.67;5.10;;;;;;;39.16;41.54;100907.47;6159011;23;20447;-78
2022/04/17 10:26:52;;;;;;;11.00;3.83;;;;;;;39.09;42.10;100905.19;6158858;23;20391;-76
2022/04/17 10:29:41;;;;;;;10.13;5.03;;;;;;;39.07;41.94;100907.41;6185436;23;20372;-78
2022/04/17 10:32:38;;;;;;;6.17;3.70;;;;;;;39.02;42.12;100906.75;6184740;23;20467;-78
2022/04/17 10:35:17;;;;;;;9.27;4.27;;;;;;;38.95;41.89;100907.19;6158791;23;20388;-77
2022/04/17 10:38:04;;;;;;;8.47;4.60;;;;;;;38.96;42.00;100909.59;6184707;23;20451;-77
2022/04/17 10:40:31;;;;;;;13.20;4.80;;;;;;;38.85;42.17;100905.53;6158741;23;20388;-75
2022/04/17 10:43:00;;;;;;;7.57;4.73;;;;;;;38.99;42.26;100912.81;6158786;23;20388;-76
2022/04/17 10:45:31;;;;;;;6.10;3.70;;;;;;;38.89;43.10;100897.59;6158495;23;20408;-75
2022/04/17 10:48:09;;;;;;;10.00;4.90;;;;;;;38.82;42.97;100899.97;6158752;23;20388;-75
2022/04/17 10:50:42;;;;;;;9.20;4.60;;;;;;;39.03;42.85;100908.34;6158641;23;20880;-77
2022/04/17 10:53:28;;;;;;;9.50;5.40;;;;;;;38.99;43.34;100912.81;6158761;23;20391;-76
2022/04/17 10:56:03;;;;;;;8.63;4.90;;;;;;;38.87;43.69;100902.53;6158287;23;20384;-76
2022/04/17 10:58:45;;;;;;;11.80;6.23;;;;;;;39.00;43.14;100898.94;6158610;23;20384;-76
2022/04/17 11:01:12;;;;;;;7.43;4.90;;;;;;;39.16;43.10;100896.63;6185119;23;20356;-76
2022/04/17 11:03:39;;;;;;;10.10;4.20;;;;;;;38.94;42.98;100905.59;6158299;23;20710;-75
2022/04/17 11:06:35;;;;;;;9.20;4.40;;;;;;;39.03;42.91;100898.28;6157963;23;20408;-74
2022/04/17 11:09:19;;;;;;;11.63;5.23;;;;;;;38.90;41.71;100896.47;6129070;23;20858;-76
2022/04/17 11:11:45;;;;;;;10.07;3.80;;;;;;;39.07;41.82;100896.56;6128843;23;20439;-77
2022/04/17 11:14:23;;;;;;;9.90;4.37;;;;;;;38.91;41.80;100885.31;6128755;23;20475;-77
2022/04/17 11:16:54;;;;;;;11.07;5.70;;;;;;;38.96;42.02;100892.53;6128859;23;20464;-76
2022/04/17 11:19:24;;;;;;;11.10;5.37;;;;;;;38.85;42.61;100888.47;6128950;23;20444;-75
2022/04/17 11:21:52;;;;;;;14.47;5.60;;;;;;;39.15;42.10;100884.94;6128771;23;20435;-75
2022/04/17 11:24:19;;;;;;;12.83;5.10;;;;;;;38.87;41.77;100884.34;6128840;23;20846;-76
2022/04/17 11:26:54;;;;;;;9.97;4.80;;;;;;;38.89;41.62;100882.13;6128936;23;20389;-76
2022/04/17 11:29:47;;;;;;;13.07;6.80;;;;;;;39.09;41.71;100879.97;6155080;23;20461;-75
2022/04/17 11:32:17;;;;;;;8.00;4.73;;;;;;;39.19;40.86;100875.09;6128535;23;20428;-75
2022/04/17 11:34:55;;;;;;;11.70;5.50;;;;;;;39.04;41.19;100867.38;6128636;23;20408;-76